Time;durP1;ratioP1;P1;durP2;ratioP2;P2;SDS_P1;SDS_P2;PMS_P1;PMS_P2;Temp;Humidity;BMP_temperature;BMP_pressure;BME280_temperature;BME280_humidity;BME280_pressure;Samples;Min_cycle;Max_cycle;Signal;HPM_P1;HPM_P2
2020/12/09 00:02:05;;;;;;;2.27;1.50;;;9.90;99.90;;;;;;5101835;28;20224;-80
2020/12/09 00:04:36;;;;;;;2.83;2.10;;;9.90;99.90;;;;;;5111307;28;20214;-84
2020/12/09 00:07:14;;;;;;;2.37;1.57;;;9.90;99.90;;;;;;5112425;28;20274;-84
2020/12/09 00:09:44;;;;;;;5.07;1.67;;;9.90;99.90;;;;;;5100752;28;20210;-81
2020/12/09 00:12:15;;;;;;;1.87;1.23;;;9.90;99.90;;;;;;5099654;28;20195;-83
2020/12/09 00:14:47;;;;;;;3.90;1.53;;;9.90;99.90;;;;;;5100177;28;20229;-83
2020/12/09 00:17:18;;;;;;;2.10;1.43;;;9.90;99.90;;;;;;5096202;28;20226;-83
2020/12/09 00:19:50;;;;;;;2.50;1.77;;;9.80;99.90;;;;;;5094464;28;20203;-84
2020/12/09 00:22:20;;;;;;;4.23;2.30;;;9.80;99.90;;;;;;5091878;28;20194;-80
2020/12/09 00:24:50;;;;;;;2.63;1.70;;;9.80;99.90;;;;;;5099172;28;20252;-81
2020/12/09 00:27:19;;;;;;;2.63;1.73;;;9.80;99.90;;;;;;5092418;28;20210;-80
2020/12/09 00:29:51;;;;;;;2.63;1.70;;;9.80;99.90;;;;;;5087992;28;20276;-82
2020/12/09 00:32:24;;;;;;;3.67;1.70;;;9.80;99.90;;;;;;5079499;28;20204;-81
2020/12/09 00:34:54;;;;;;;2.97;2.10;;;9.70;99.90;;;;;;5077423;28;20202;-81
2020/12/09 00:37:24;;;;;;;2.87;1.93;;;9.70;99.90;;;;;;5093153;28;20296;-81
2020/12/09 00:39:57;;;;;;;2.40;1.90;;;9.70;99.90;;;;;;5095313;28;20203;-81
2020/12/09 00:42:27;;;;;;;2.00;1.57;;;9.70;99.90;;;;;;5090717;28;20203;-81
2020/12/09 00:44:57;;;;;;;1.50;1.20;;;9.70;99.90;;;;;;5091510;28;20279;-79
2020/12/09 00:47:27;;;;;;;1.50;1.20;;;9.70;99.90;;;;;;5091006;28;20259;-80
2020/12/09 00:52:43;;;;;;;2.13;1.40;;;9.60;99.90;;;;;;5090225;28;20675;-81
2020/12/09 00:55:13;;;;;;;1.30;1.07;;;9.60;99.90;;;;;;5092162;28;20279;-81
2020/12/09 00:57:43;;;;;;;2.43;1.43;;;9.50;99.90;;;;;;5089647;28;20697;-81
2020/12/09 01:00:15;;;;;;;2.73;1.40;;;9.50;99.90;;;;;;5086168;28;20215;-81
2020/12/09 01:02:45;;;;;;;2.47;1.43;;;9.50;99.90;;;;;;5089907;28;20222;-86
2020/12/09 01:05:16;;;;;;;2.40;1.50;;;9.50;99.90;;;;;;5094097;28;20257;-84
2020/12/09 01:07:45;;;;;;;2.50;1.20;;;9.50;99.90;;;;;;5093860;28;20256;-86
2020/12/09 01:10:15;;;;;;;3.83;1.40;;;9.40;99.90;;;;;;5080405;28;20215;-83
2020/12/09 01:12:46;;;;;;;1.30;1.00;;;9.40;99.90;;;;;;5088449;28;20291;-83
2020/12/09 01:15:18;;;;;;;1.30;0.90;;;9.40;99.90;;;;;;5089063;28;20597;-80
2020/12/09 01:17:48;;;;;;;2.77;0.97;;;9.30;99.90;;;;;;5087876;28;20266;-82
2020/12/09 01:20:18;;;;;;;1.10;1.00;;;9.30;99.90;;;;;;5074830;28;20206;-81
2020/12/09 01:22:50;;;;;;;1.47;0.90;;;9.30;99.90;;;;;;5087991;28;20697;-81
2020/12/09 01:25:21;;;;;;;0.90;0.90;;;9.20;99.90;;;;;;5076797;28;20210;-84
2020/12/09 01:27:50;;;;;;;2.40;1.17;;;9.20;99.90;;;;;;5088476;28;20310;-83
2020/12/09 01:30:21;;;;;;;1.10;1.00;;;9.20;99.90;;;;;;5089744;28;20215;-83
2020/12/09 01:32:51;;;;;;;1.53;1.20;;;9.20;99.90;;;;;;5089685;28;20676;-82
2020/12/09 01:35:21;;;;;;;3.97;1.43;;;9.20;99.90;;;;;;5085070;28;20571;-80
2020/12/09 01:37:51;;;;;;;1.40;1.30;;;9.20;99.90;;;;;;5088256;28;20275;-83
2020/12/09 01:40:22;;;;;;;3.23;1.57;;;9.10;99.90;;;;;;5089859;28;20869;-83
2020/12/09 01:42:51;;;;;;;2.50;1.20;;;9.20;99.90;;;;;;5087410;28;20865;-83
2020/12/09 01:45:23;;;;;;;2.53;1.27;;;9.20;99.90;;;;;;5069122;28;20215;-81
2020/12/09 01:47:53;;;;;;;3.33;1.53;;;9.10;99.90;;;;;;5076969;28;20211;-81
2020/12/09 01:50:22;;;;;;;2.23;1.33;;;9.10;99.90;;;;;;5087512;28;20289;-82
2020/12/09 01:52:53;;;;;;;3.00;1.50;;;9.10;99.90;;;;;;5087693;28;20210;-81
2020/12/09 01:55:23;;;;;;;2.10;1.90;;;9.10;99.90;;;;;;5087828;28;20198;-81
2020/12/09 01:57:53;;;;;;;2.57;1.73;;;9.10;99.90;;;;;;5090663;28;20297;-87
2020/12/09 02:00:24;;;;;;;3.10;1.90;;;9.10;99.90;;;;;;5090367;28;20217;-84
2020/12/09 02:02:56;;;;;;;5.20;2.20;;;9.00;99.90;;;;;;5086568;28;20215;-85
2020/12/09 02:05:26;;;;;;;4.43;2.40;;;9.10;99.90;;;;;;5086946;28;20211;-84
2020/12/09 02:07:56;;;;;;;2.53;2.33;;;9.10;99.90;;;;;;5081040;28;20230;-82
2020/12/09 02:10:26;;;;;;;2.87;2.23;;;9.10;99.90;;;;;;5083742;28;21817;-83
2020/12/09 02:12:56;;;;;;;1.83;1.73;;;9.10;99.90;;;;;;5087106;28;20610;-82
2020/12/09 02:15:28;;;;;;;2.23;1.60;;;9.10;99.90;;;;;;5087512;28;20640;-83
2020/12/09 02:17:57;;;;;;;2.17;1.57;;;9.10;99.90;;;;;;5087592;28;20234;-82
2020/12/09 02:20:27;;;;;;;3.97;1.50;;;9.10;99.90;;;;;;5087052;28;20279;-82
2020/12/09 02:23:01;;;;;;;12.37;2.53;;;9.00;99.90;;;;;;5087653;28;20291;-83
2020/12/09 02:25:32;;;;;;;5.57;1.60;;;9.00;99.90;;;;;;5092307;28;20299;-83
2020/12/09 02:28:02;;;;;;;1.90;1.20;;;9.10;99.90;;;;;;5097786;28;20222;-81
2020/12/09 02:30:32;;;;;;;4.20;1.60;;;9.10;99.90;;;;;;5095952;28;20207;-81
2020/12/09 02:33:03;;;;;;;4.20;1.73;;;9.10;99.90;;;;;;5099906;28;20214;-81
2020/12/09 02:35:34;;;;;;;3.90;2.23;;;9.10;99.90;;;;;;5085742;28;20202;-81
2020/12/09 02:38:09;;;;;;;15.60;2.57;;;9.10;99.90;;;;;;5101279;28;20269;-83
2020/12/09 02:40:41;;;;;;;9.10;2.77;;;9.00;99.90;;;;;;5087265;28;20613;-86
2020/12/09 02:45:57;;;;;;;1.90;1.60;;;9.10;99.90;;;;;;5099837;28;20191;-85
2020/12/09 02:48:36;;;;;;;3.30;2.07;;;9.10;99.90;;;;;;5103094;28;20215;-86
2020/12/09 02:51:09;;;;;;;3.80;2.77;;;9.10;99.90;;;;;;5099358;28;20267;-87
2020/12/09 02:54:05;;;;;;;4.03;2.30;;;9.10;99.90;;;;;;5102184;28;20207;-88
2020/12/09 02:56:38;;;;;;;4.17;2.43;;;9.10;99.90;;;;;;5098442;28;20237;-86
2020/12/09 03:02:18;;;;;;;6.13;2.50;;;9.10;99.90;;;;;;5101478;28;20225;-85
2020/12/09 03:04:50;;;;;;;2.50;2.30;;;9.10;99.90;;;;;;5099621;28;20278;-85
2020/12/09 03:07:22;;;;;;;6.90;2.47;;;9.10;99.90;;;;;;5104050;28;20194;-90
2020/12/09 03:09:54;;;;;;;3.67;2.60;;;9.10;99.90;;;;;;5106362;28;20207;-87
2020/12/09 03:12:26;;;;;;;14.47;3.17;;;9.10;99.90;;;;;;5101995;28;20535;-86
2020/12/09 03:14:57;;;;;;;4.60;2.90;;;9.10;99.90;;;;;;5102473;28;20210;-85
2020/12/09 03:17:28;;;;;;;8.70;3.30;;;9.10;99.90;;;;;;5098996;28;20294;-84
2020/12/09 03:19:58;;;;;;;5.63;3.40;;;9.10;99.90;;;;;;5100858;28;20199;-85
2020/12/09 03:22:29;;;;;;;6.70;3.97;;;9.10;99.90;;;;;;5100426;28;20206;-84
2020/12/09 03:25:01;;;;;;;8.73;4.33;;;9.10;99.90;;;;;;5105015;28;20233;-85
2020/12/09 03:27:32;;;;;;;5.50;4.43;;;9.10;99.90;;;;;;5108221;28;20218;-85
2020/12/09 03:30:04;;;;;;;10.17;6.10;;;9.10;99.90;;;;;;5105899;28;20199;-85
2020/12/09 03:32:37;;;;;;;9.60;7.60;;;9.10;99.90;;;;;;5101653;28;20210;-85
2020/12/09 03:35:08;;;;;;;8.43;7.03;;;9.10;99.90;;;;;;5116251;28;20202;-86
2020/12/09 03:37:38;;;;;;;8.40;7.47;;;9.00;99.90;;;;;;4758428;28;10000664;-86
2020/12/09 03:40:10;;;;;;;9.40;7.40;;;9.00;99.90;;;;;;5107660;28;20234;-85
2020/12/09 03:42:40;;;;;;;8.20;7.40;;;9.00;99.90;;;;;;5105968;28;20203;-88
2020/12/09 03:45:13;;;;;;;9.53;7.90;;;9.10;99.90;;;;;;5089691;28;20218;-85
2020/12/09 03:47:44;;;;;;;14.73;6.77;;;9.10;99.90;;;;;;5103032;28;20209;-84
2020/12/09 03:50:15;;;;;;;8.83;7.93;;;9.10;99.90;;;;;;5097018;28;20225;-86
2020/12/09 03:52:59;;;;;;;16.43;8.67;;;9.00;99.90;;;;;;5105969;28;20205;-87
2020/12/09 03:55:33;;;;;;;15.17;9.57;;;9.00;99.90;;;;;;5109067;28;20190;-84
2020/12/09 03:58:04;;;;;;;14.43;9.43;;;9.00;99.90;;;;;;5104028;28;20234;-85
2020/12/09 04:00:35;;;;;;;10.93;8.97;;;9.00;99.90;;;;;;5106004;28;20205;-86
2020/12/09 04:03:06;;;;;;;8.67;7.00;;;9.00;99.90;;;;;;5105162;28;20211;-85
2020/12/09 04:05:37;;;;;;;7.73;6.97;;;9.00;99.90;;;;;;5105939;28;20247;-87
2020/12/09 04:08:09;;;;;;;12.47;6.53;;;8.90;99.90;;;;;;5105062;28;20242;-85
2020/12/09 04:10:55;;;;;;;6.23;5.63;;;8.90;99.90;;;;;;5105379;28;20208;-83
2020/12/09 04:13:29;;;;;;;7.17;6.10;;;8.80;99.90;;;;;;5105341;28;20205;-85
2020/12/09 04:16:06;;;;;;;7.53;6.53;;;8.80;99.90;;;;;;5106135;28;20255;-85
2020/12/09 04:18:37;;;;;;;6.80;6.20;;;8.80;99.90;;;;;;5105253;28;20253;-82
2020/12/09 04:21:10;;;;;;;5.40;4.90;;;8.80;99.90;;;;;;5109043;28;20660;-84
2020/12/09 04:23:41;;;;;;;6.30;3.70;;;8.80;99.90;;;;;;5110385;28;20210;-85
2020/12/09 04:26:13;;;;;;;7.37;3.80;;;8.80;99.90;;;;;;5106662;28;20198;-85
2020/12/09 04:28:43;;;;;;;4.03;3.63;;;8.90;99.90;;;;;;5106602;28;20213;-85
2020/12/09 04:31:14;;;;;;;3.00;2.70;;;8.90;99.90;;;;;;5104515;28;20577;-85
2020/12/09 04:34:00;;;;;;;4.20;2.97;;;8.90;99.90;;;;;;5104940;28;20191;-84
2020/12/09 04:36:30;;;;;;;3.40;2.30;;;8.80;99.90;;;;;;5105077;28;20226;-84
2020/12/09 04:39:02;;;;;;;4.60;2.80;;;8.80;99.90;;;;;;5106687;28;20213;-84
2020/12/09 04:41:35;;;;;;;3.43;3.03;;;8.80;99.90;;;;;;5105553;28;20213;-84
2020/12/09 04:44:08;;;;;;;2.97;2.63;;;8.80;99.90;;;;;;5105254;28;20201;-85
2020/12/09 04:46:43;;;;;;;3.80;2.60;;;8.80;99.90;;;;;;5106949;28;20236;-85
2020/12/09 04:49:19;;;;;;;4.13;2.53;;;8.70;99.90;;;;;;5104398;28;20204;-85
2020/12/09 04:52:27;;;;;;;4.60;2.90;;;8.70;99.90;;;;;;5106186;28;20266;-85
2020/12/09 04:55:35;;;;;;;4.13;3.03;;;8.70;99.90;;;;;;5099913;28;20231;-85
2020/12/09 04:58:19;;;;;;;2.20;2.00;;;8.70;99.90;;;;;;5103414;28;20233;-83
2020/12/09 05:00:56;;;;;;;9.50;2.47;;;8.70;99.90;;;;;;5104396;28;20308;-84
2020/12/09 05:03:33;;;;;;;4.30;2.67;;;8.70;99.90;;;;;;5118222;28;20202;-83
2020/12/09 05:06:08;;;;;;;4.83;2.70;;;8.80;99.90;;;;;;5117894;28;20221;-84
2020/12/09 05:08:44;;;;;;;3.27;2.37;;;8.70;99.90;;;;;;5104342;28;20214;-84
2020/12/09 05:11:22;;;;;;;2.77;2.47;;;8.70;99.90;;;;;;5105871;28;20199;-85
2020/12/09 05:13:58;;;;;;;5.83;2.70;;;8.70;99.90;;;;;;5103988;28;20210;-84
2020/12/09 05:16:32;;;;;;;3.10;2.60;;;8.70;99.90;;;;;;5107336;28;20199;-83
2020/12/09 05:19:03;;;;;;;3.10;1.90;;;8.80;99.90;;;;;;5106513;28;20301;-83
2020/12/09 05:21:34;;;;;;;2.20;2.00;;;8.70;99.90;;;;;;5114389;28;20191;-84
2020/12/09 05:24:06;;;;;;;2.83;2.10;;;8.70;99.90;;;;;;5115428;28;20228;-83
2020/12/09 05:26:40;;;;;;;2.63;2.10;;;8.70;99.90;;;;;;5114090;28;20206;-86
2020/12/09 05:29:15;;;;;;;3.00;1.90;;;8.60;99.90;;;;;;5109802;28;20271;-86
2020/12/09 05:31:48;;;;;;;3.63;2.40;;;8.60;99.90;;;;;;5103072;28;20235;-86
2020/12/09 05:34:35;;;;;;;3.60;1.87;;;8.60;99.90;;;;;;5108273;28;20213;-86
2020/12/09 05:37:08;;;;;;;2.37;1.90;;;8.60;99.90;;;;;;5106659;28;20246;-86
2020/12/09 05:39:52;;;;;;;3.33;1.97;;;8.60;99.90;;;;;;5105772;28;20229;-86
2020/12/09 05:42:24;;;;;;;2.37;1.73;;;8.60;99.90;;;;;;5104099;28;20274;-84
2020/12/09 05:44:57;;;;;;;6.03;2.10;;;8.60;99.90;;;;;;5104065;28;20219;-87
2020/12/09 05:47:28;;;;;;;5.43;2.20;;;8.60;99.90;;;;;;5105479;28;20214;-84
2020/12/09 05:50:00;;;;;;;6.50;2.20;;;8.60;99.90;;;;;;5103593;28;20225;-85
2020/12/09 05:52:33;;;;;;;3.77;1.60;;;8.70;99.90;;;;;;5098305;28;20203;-84
2020/12/09 05:55:29;;;;;;;4.87;1.50;;;8.60;99.90;;;;;;5104824;28;20645;-87
2020/12/09 05:58:20;;;;;;;3.00;1.30;;;8.70;99.90;;;;;;5105084;28;20238;-85
2020/12/09 06:01:14;;;;;;;3.07;1.50;;;8.70;99.90;;;;;;5092693;28;20505;-84
2020/12/09 06:03:46;;;;;;;2.67;1.70;;;8.60;99.90;;;;;;5101577;28;20263;-84
2020/12/09 06:06:22;;;;;;;1.50;1.30;;;8.60;99.90;;;;;;5093633;28;20201;-84
2020/12/09 06:08:54;;;;;;;1.10;0.90;;;8.50;99.90;;;;;;5095354;28;20231;-83
2020/12/09 06:11:30;;;;;;;3.10;1.10;;;8.50;99.90;;;;;;5103491;28;20201;-84
2020/12/09 06:14:02;;;;;;;3.17;1.13;;;8.50;99.90;;;;;;5104195;28;20226;-85
2020/12/09 06:16:34;;;;;;;1.63;0.93;;;8.50;99.90;;;;;;5103469;28;20209;-85
2020/12/09 06:19:05;;;;;;;4.73;1.03;;;8.40;99.90;;;;;;5094169;28;20202;-84
2020/12/09 06:21:38;;;;;;;0.60;0.40;;;8.40;99.90;;;;;;5103755;28;20752;-85
2020/12/09 06:24:10;;;;;;;2.73;0.80;;;8.40;99.90;;;;;;5104598;28;20223;-85
2020/12/09 06:26:40;;;;;;;0.83;0.73;;;8.40;99.90;;;;;;5104339;28;20213;-84
2020/12/09 06:29:11;;;;;;;1.30;0.50;;;8.30;99.90;;;;;;5102046;28;20228;-84
2020/12/09 06:31:43;;;;;;;2.10;0.77;;;8.30;99.90;;;;;;5102840;28;20218;-85
2020/12/09 06:34:17;;;;;;;1.27;0.60;;;8.30;99.90;;;;;;5103576;28;20409;-85
2020/12/09 06:37:14;;;;;;;0.67;0.43;;;8.30;99.90;;;;;;5103516;28;20257;-85
2020/12/09 06:40:09;;;;;;;0.60;0.60;;;8.30;99.90;;;;;;5104026;28;20269;-85
2020/12/09 06:42:39;;;;;;;0.60;0.50;;;8.30;99.90;;;;;;5099795;28;20209;-85
2020/12/09 06:45:11;;;;;;;0.97;0.40;;;8.30;99.90;;;;;;5103201;28;20252;-85
2020/12/09 06:47:44;;;;;;;3.00;0.50;;;8.30;99.90;;;;;;5102567;28;20686;-85
2020/12/09 06:50:31;;;;;;;0.63;0.50;;;8.30;99.90;;;;;;5103337;28;20334;-85
2020/12/09 06:53:13;;;;;;;4.33;0.60;;;8.30;99.90;;;;;;5102972;28;20244;-84
2020/12/09 06:58:39;;;;;;;1.20;0.60;;;8.20;99.90;;;;;;5102731;28;20288;-85
2020/12/09 07:01:26;;;;;;;5.33;1.67;;;8.30;99.90;;;;;;5103099;28;20281;-84
2020/12/09 07:03:59;;;;;;;1.73;0.73;;;8.30;99.90;;;;;;5102323;28;20355;-84
2020/12/09 07:06:37;;;;;;;10.80;1.10;;;8.30;99.90;;;;;;5103391;28;20202;-85
2020/12/09 07:09:08;;;;;;;2.93;0.90;;;8.30;99.90;;;;;;5102211;28;20354;-85
2020/12/09 07:11:57;;;;;;;3.23;1.30;;;8.20;99.90;;;;;;5100823;28;20206;-85
2020/12/09 07:14:28;;;;;;;0.87;0.60;;;8.20;99.90;;;;;;5096008;28;20211;-85
2020/12/09 07:16:59;;;;;;;2.90;0.70;;;8.20;99.90;;;;;;5103625;28;20227;-84
2020/12/09 07:19:35;;;;;;;1.00;0.60;;;8.20;99.90;;;;;;5102069;28;20219;-84
2020/12/09 07:22:06;;;;;;;1.83;0.63;;;8.20;99.90;;;;;;5100095;28;20195;-84
2020/12/09 07:24:40;;;;;;;1.77;0.70;;;8.30;99.90;;;;;;5102434;28;20674;-85
2020/12/09 07:27:16;;;;;;;3.87;0.70;;;8.20;99.90;;;;;;5088980;28;20202;-83
2020/12/09 07:29:48;;;;;;;1.97;0.67;;;8.20;99.90;;;;;;5104025;28;20260;-85
2020/12/09 07:32:22;;;;;;;0.70;0.60;;;8.20;99.90;;;;;;5099081;28;20692;-86
2020/12/09 07:35:02;;;;;;;2.77;0.70;;;8.20;99.90;;;;;;5101452;28;20710;-86
2020/12/09 07:37:35;;;;;;;1.33;0.70;;;8.20;99.90;;;;;;5101017;28;20228;-86
2020/12/09 07:40:17;;;;;;;1.07;0.77;;;8.30;99.90;;;;;;5103129;28;20202;-85
2020/12/09 07:42:47;;;;;;;2.87;0.83;;;8.20;99.90;;;;;;5099665;28;20202;-86
2020/12/09 07:45:22;;;;;;;1.07;0.97;;;8.20;99.90;;;;;;5101431;28;20276;-85
2020/12/09 07:48:00;;;;;;;1.43;1.10;;;8.20;99.90;;;;;;5101885;28;20198;-85
2020/12/09 07:50:33;;;;;;;1.57;0.90;;;8.20;99.90;;;;;;5099695;28;20607;-86
2020/12/09 07:53:05;;;;;;;3.63;1.00;;;8.20;99.90;;;;;;5101213;28;20865;-84
2020/12/09 07:55:36;;;;;;;1.70;0.90;;;8.20;99.90;;;;;;5102337;28;20647;-85
2020/12/09 07:58:12;;;;;;;2.00;1.13;;;8.20;99.90;;;;;;5095968;28;20280;-84
2020/12/09 08:00:43;;;;;;;3.67;1.23;;;8.20;99.90;;;;;;5088243;28;20267;-84
2020/12/09 08:03:20;;;;;;;3.07;1.07;;;8.20;99.90;;;;;;5097994;28;20211;-87
2020/12/09 08:05:54;;;;;;;1.03;0.87;;;8.20;99.90;;;;;;5099720;28;20206;-85
2020/12/09 08:08:27;;;;;;;1.73;1.00;;;8.20;99.90;;;;;;5101630;28;20297;-85
2020/12/09 08:11:10;;;;;;;1.20;1.00;;;8.20;99.90;;;;;;5105972;28;20198;-84
2020/12/09 08:13:40;;;;;;;4.90;0.87;;;8.20;99.90;;;;;;5110935;28;20206;-84
2020/12/09 08:16:13;;;;;;;2.80;1.00;;;8.20;99.90;;;;;;5120120;28;20705;-84
2020/12/09 08:18:47;;;;;;;1.40;0.90;;;8.20;99.90;;;;;;5103433;28;20223;-85
2020/12/09 08:21:29;;;;;;;0.70;0.70;;;8.20;99.90;;;;;;5102137;28;20198;-85
2020/12/09 08:24:21;;;;;;;2.60;1.10;;;8.20;99.90;;;;;;5106417;28;20240;-85
2020/12/09 08:26:54;;;;;;;1.47;0.93;;;8.30;99.90;;;;;;5105528;28;20271;-86
2020/12/09 08:29:26;;;;;;;1.73;1.00;;;8.30;99.90;;;;;;5104478;28;20209;-86
2020/12/09 08:32:05;;;;;;;1.20;0.90;;;8.30;99.90;;;;;;5104957;28;20263;-85
2020/12/09 08:34:37;;;;;;;1.60;0.70;;;8.30;99.90;;;;;;5105712;28;20206;-85
2020/12/09 08:37:19;;;;;;;2.03;1.17;;;8.20;99.90;;;;;;5104951;28;20209;-85
2020/12/09 08:39:51;;;;;;;2.50;0.97;;;8.20;99.90;;;;;;5105229;28;20206;-85
2020/12/09 08:42:31;;;;;;;4.20;1.13;;;8.20;99.90;;;;;;5102035;28;20192;-85
2020/12/09 08:45:04;;;;;;;1.57;1.00;;;8.20;99.90;;;;;;5102487;28;20266;-85
2020/12/09 08:47:37;;;;;;;2.20;0.83;;;8.20;99.90;;;;;;5106477;28;20289;-84
2020/12/09 08:50:10;;;;;;;1.23;0.90;;;8.10;99.90;;;;;;5105067;28;20203;-86
2020/12/09 08:52:44;;;;;;;1.10;1.00;;;8.20;99.90;;;;;;5104454;28;20224;-86
2020/12/09 08:55:15;;;;;;;2.43;0.83;;;8.20;99.90;;;;;;5104315;28;20289;-85
2020/12/09 08:57:47;;;;;;;2.00;1.30;;;8.20;99.90;;;;;;5105172;28;20602;-84
2020/12/09 09:00:18;;;;;;;1.53;0.80;;;8.20;99.90;;;;;;5105998;28;20262;-84
2020/12/09 09:02:50;;;;;;;0.97;0.73;;;8.20;99.90;;;;;;5084066;28;20237;-85
2020/12/09 09:05:21;;;;;;;1.90;0.70;;;8.20;99.90;;;;;;5086611;28;20207;-84
2020/12/09 09:07:54;;;;;;;1.70;0.80;;;8.10;99.90;;;;;;5104563;28;20210;-84
2020/12/09 09:10:25;;;;;;;2.50;0.93;;;8.20;99.90;;;;;;5097406;28;20213;-84
2020/12/09 09:12:57;;;;;;;2.73;0.77;;;8.20;99.90;;;;;;5102534;28;20198;-84
2020/12/09 09:15:35;;;;;;;1.60;0.73;;;8.20;99.90;;;;;;5094461;28;20203;-86
2020/12/09 09:18:08;;;;;;;1.40;0.90;;;8.30;99.90;;;;;;5097150;28;20222;-85
2020/12/09 09:20:40;;;;;;;1.73;1.20;;;8.30;99.90;;;;;;5105390;28;20226;-85
2020/12/09 09:23:13;;;;;;;2.97;0.80;;;8.30;99.90;;;;;;5102547;28;20254;-85
2020/12/09 09:25:44;;;;;;;1.30;1.00;;;8.30;99.90;;;;;;5104739;28;20242;-85
2020/12/09 09:28:17;;;;;;;1.07;0.90;;;8.40;99.90;;;;;;5104819;28;20717;-85
2020/12/09 09:30:49;;;;;;;2.80;1.83;;;8.40;99.90;;;;;;5105049;28;20213;-85
2020/12/09 09:33:21;;;;;;;3.30;1.53;;;8.40;99.90;;;;;;5103092;28;20234;-86
2020/12/09 09:35:53;;;;;;;1.57;1.33;;;8.40;99.90;;;;;;5104401;28;20198;-85
2020/12/09 09:38:28;;;;;;;2.17;1.30;;;8.40;99.90;;;;;;5103435;28;20310;-85
2020/12/09 09:40:59;;;;;;;1.73;1.10;;;8.40;99.90;;;;;;5104541;28;20195;-85
2020/12/09 09:43:31;;;;;;;1.40;1.30;;;8.40;99.90;;;;;;5098667;28;20207;-85
2020/12/09 09:46:05;;;;;;;3.40;1.30;;;8.40;99.90;;;;;;5103064;28;20274;-85
2020/12/09 09:48:37;;;;;;;3.83;1.77;;;8.30;99.90;;;;;;5104032;28;20229;-86
2020/12/09 09:51:10;;;;;;;2.37;1.37;;;8.40;99.90;;;;;;5104343;28;20252;-85
2020/12/09 09:53:43;;;;;;;2.20;1.43;;;8.40;99.90;;;;;;5103811;28;20303;-85
2020/12/09 09:56:15;;;;;;;3.20;1.20;;;8.40;99.90;;;;;;5091973;28;20203;-85
2020/12/09 09:58:47;;;;;;;2.60;1.00;;;8.40;99.90;;;;;;5101595;28;20223;-85
2020/12/09 10:01:18;;;;;;;1.10;1.00;;;8.40;99.90;;;;;;5103404;28;20297;-85
2020/12/09 10:03:50;;;;;;;2.00;1.50;;;8.40;99.90;;;;;;5099042;28;20272;-85
2020/12/09 10:06:22;;;;;;;1.90;1.40;;;8.40;99.90;;;;;;5101234;28;20274;-87
2020/12/09 10:08:54;;;;;;;4.17;2.03;;;8.50;99.90;;;;;;5095563;28;20225;-85
2020/12/09 10:11:25;;;;;;;4.20;1.90;;;8.50;99.90;;;;;;5103785;28;20199;-85
2020/12/09 10:13:57;;;;;;;2.73;1.80;;;8.40;99.90;;;;;;5102659;28;20206;-86
2020/12/09 10:16:28;;;;;;;3.37;1.77;;;8.50;99.90;;;;;;5103566;28;20195;-84
2020/12/09 10:19:06;;;;;;;4.20;1.97;;;8.50;99.90;;;;;;5102669;28;20236;-84
2020/12/09 10:21:38;;;;;;;3.10;2.37;;;8.50;99.90;;;;;;5111736;28;20273;-87
2020/12/09 10:24:11;;;;;;;3.70;2.20;;;8.50;99.90;;;;;;5103350;28;20248;-85
2020/12/09 10:26:45;;;;;;;3.93;2.10;;;8.50;99.90;;;;;;5103467;28;20230;-84
2020/12/09 10:29:17;;;;;;;4.70;1.60;;;8.50;99.90;;;;;;5093943;28;20195;-84
2020/12/09 10:31:50;;;;;;;4.20;1.90;;;8.60;99.90;;;;;;5101719;28;20205;-85
2020/12/09 10:34:23;;;;;;;4.93;1.60;;;8.50;99.90;;;;;;5103432;28;20247;-85
2020/12/09 10:36:56;;;;;;;5.03;1.63;;;8.50;99.90;;;;;;5105363;28;20425;-84
2020/12/09 10:39:32;;;;;;;5.33;2.10;;;8.50;99.90;;;;;;5103193;28;20235;-84
2020/12/09 10:42:10;;;;;;;2.57;2.00;;;8.50;99.90;;;;;;5101321;28;20224;-85
2020/12/09 10:44:44;;;;;;;6.63;1.60;;;8.50;99.90;;;;;;5104739;28;20202;-85
2020/12/09 10:47:18;;;;;;;3.53;1.53;;;8.50;99.90;;;;;;5104866;28;20218;-86
2020/12/09 10:49:50;;;;;;;3.77;1.80;;;8.60;99.90;;;;;;5105571;28;20294;-85
2020/12/09 10:52:22;;;;;;;5.13;1.90;;;8.60;99.90;;;;;;5100022;28;20193;-84
2020/12/09 10:55:00;;;;;;;2.87;1.70;;;8.50;99.90;;;;;;5104410;28;20193;-85
2020/12/09 10:57:31;;;;;;;5.83;1.80;;;8.50;99.90;;;;;;5104090;28;20199;-85
2020/12/09 11:00:07;;;;;;;2.87;2.00;;;8.50;99.90;;;;;;5103787;28;20206;-83
2020/12/09 11:02:39;;;;;;;2.97;2.00;;;8.50;99.90;;;;;;5103924;28;20255;-84
2020/12/09 11:05:12;;;;;;;6.37;2.73;;;8.50;99.90;;;;;;5104536;28;20206;-86
2020/12/09 11:07:43;;;;;;;6.57;2.13;;;8.50;99.90;;;;;;5104952;28;20210;-85
2020/12/09 11:10:15;;;;;;;5.70;2.47;;;8.50;99.90;;;;;;5114885;28;20291;-86
2020/12/09 11:12:48;;;;;;;7.33;2.80;;;8.40;99.90;;;;;;5112585;28;20186;-85
2020/12/09 11:15:19;;;;;;;6.37;2.47;;;8.40;99.90;;;;;;5112463;28;20201;-86
2020/12/09 11:17:50;;;;;;;5.37;2.50;;;8.40;99.90;;;;;;5106987;28;20247;-86
2020/12/09 11:20:28;;;;;;;6.40;2.37;;;8.30;99.90;;;;;;5105791;28;20278;-85
2020/12/09 11:22:58;;;;;;;5.60;2.90;;;8.30;99.90;;;;;;5098105;28;20259;-85
2020/12/09 11:25:32;;;;;;;6.33;2.37;;;8.30;99.90;;;;;;5104588;28;20206;-85
2020/12/09 11:28:08;;;;;;;4.63;2.47;;;8.30;99.90;;;;;;5103129;28;20768;-85
2020/12/09 11:30:40;;;;;;;5.20;2.50;;;8.30;99.90;;;;;;5102800;28;20212;-85
2020/12/09 11:33:11;;;;;;;4.80;2.60;;;8.40;99.90;;;;;;5103114;28;20206;-85
2020/12/09 11:35:41;;;;;;;8.70;3.30;;;8.30;99.90;;;;;;5110204;28;20216;-84
2020/12/09 11:38:12;;;;;;;5.37;3.20;;;8.30;99.90;;;;;;5101855;28;20230;-85
2020/12/09 11:40:45;;;;;;;5.93;2.93;;;8.30;99.90;;;;;;5102607;28;20195;-85
2020/12/09 11:43:19;;;;;;;6.87;2.50;;;8.30;99.90;;;;;;5108928;28;20199;-84
2020/12/09 11:45:51;;;;;;;5.60;3.03;;;8.20;99.90;;;;;;5106940;28;20198;-85
2020/12/09 11:48:22;;;;;;;6.13;2.93;;;8.30;99.90;;;;;;5107331;28;20575;-88
2020/12/09 11:50:52;;;;;;;7.83;2.77;;;8.30;99.90;;;;;;5107343;28;20206;-85
2020/12/09 11:53:24;;;;;;;6.73;3.00;;;8.30;99.90;;;;;;5105004;28;20210;-85
2020/12/09 11:55:57;;;;;;;7.87;3.60;;;8.30;99.90;;;;;;5107964;28;20203;-84
2020/12/09 11:58:27;;;;;;;8.00;3.20;;;8.40;99.90;;;;;;5105519;28;20235;-84
2020/12/09 12:00:57;;;;;;;7.23;3.30;;;8.40;99.90;;;;;;5105942;28;20229;-84
2020/12/09 12:03:29;;;;;;;11.43;3.40;;;8.30;99.90;;;;;;5105889;28;20674;-85
2020/12/09 12:06:00;;;;;;;15.03;4.00;;;8.40;99.90;;;;;;5102824;28;20199;-85
2020/12/09 12:08:31;;;;;;;10.33;3.67;;;8.30;99.90;;;;;;5105949;28;20202;-85
2020/12/09 12:11:03;;;;;;;5.00;3.10;;;8.30;99.90;;;;;;5106346;28;20207;-85
2020/12/09 12:13:33;;;;;;;5.47;3.17;;;8.30;99.90;;;;;;5105135;28;20199;-88
2020/12/09 12:16:03;;;;;;;6.63;3.50;;;8.20;99.90;;;;;;5105949;28;20244;-86
2020/12/09 12:18:34;;;;;;;4.63;3.70;;;8.20;99.90;;;;;;5105013;28;20284;-86
2020/12/09 12:21:05;;;;;;;8.87;3.17;;;8.20;99.90;;;;;;5092989;28;20566;-86
2020/12/09 12:23:36;;;;;;;8.77;3.20;;;8.20;99.90;;;;;;5103932;28;20266;-86
2020/12/09 12:26:17;;;;;;;5.37;3.40;;;8.30;99.90;;;;;;5106502;28;20262;-84
2020/12/09 12:28:49;;;;;;;3.17;2.87;;;8.30;99.90;;;;;;5106328;28;20207;-84
2020/12/09 12:31:21;;;;;;;7.37;3.13;;;8.30;99.90;;;;;;5105295;28;20211;-84
2020/12/09 12:33:55;;;;;;;4.13;2.33;;;8.30;99.90;;;;;;5105280;28;20202;-84
2020/12/09 12:36:26;;;;;;;4.23;2.97;;;8.30;99.90;;;;;;5113740;28;20259;-83
2020/12/09 12:38:56;;;;;;;4.37;2.83;;;8.30;99.90;;;;;;5111990;28;20248;-84
2020/12/09 12:41:28;;;;;;;8.03;3.10;;;8.30;99.90;;;;;;5121395;28;20229;-85
2020/12/09 12:44:00;;;;;;;5.97;2.90;;;8.30;99.90;;;;;;5111734;28;20703;-84
2020/12/09 12:46:31;;;;;;;4.90;2.70;;;8.30;99.90;;;;;;5104603;28;20223;-83
2020/12/09 12:49:04;;;;;;;5.67;2.50;;;8.30;99.90;;;;;;5103960;28;20713;-84
2020/12/09 12:51:36;;;;;;;4.70;3.10;;;8.30;99.90;;;;;;5105523;28;20214;-90
2020/12/09 12:54:08;;;;;;;4.10;2.57;;;8.30;99.90;;;;;;5100968;28;20346;-85
2020/12/09 12:56:41;;;;;;;7.23;2.93;;;8.30;99.90;;;;;;5120459;28;20206;-85
2020/12/09 12:59:13;;;;;;;4.27;3.13;;;8.40;99.90;;;;;;5110366;28;20247;-85
2020/12/09 13:01:44;;;;;;;6.70;3.07;;;8.40;99.90;;;;;;5104191;28;20207;-85
2020/12/09 13:04:14;;;;;;;4.10;2.73;;;8.40;99.90;;;;;;5096119;28;20264;-85
2020/12/09 13:06:57;;;;;;;4.97;3.50;;;8.40;99.90;;;;;;5105630;28;20221;-85
2020/12/09 13:09:36;;;;;;;4.30;3.30;;;8.40;99.90;;;;;;5105503;28;20217;-85
2020/12/09 13:12:11;;;;;;;3.67;3.33;;;8.40;99.90;;;;;;5104577;28;20218;-85
2020/12/09 13:14:59;;;;;;;5.80;3.27;;;8.40;99.90;;;;;;5100561;28;20236;-87
2020/12/09 13:17:45;;;;;;;6.73;3.83;;;8.40;99.90;;;;;;5105036;28;20267;-84
2020/12/09 13:20:15;;;;;;;5.40;3.73;;;8.40;99.90;;;;;;5106014;28;20209;-84
2020/12/09 13:22:46;;;;;;;6.57;3.57;;;8.40;99.90;;;;;;5103532;28;20197;-86
2020/12/09 13:25:20;;;;;;;9.30;3.77;;;8.40;99.90;;;;;;5104470;28;20198;-85
2020/12/09 13:27:54;;;;;;;3.73;2.93;;;8.40;99.90;;;;;;5104565;28;20263;-86
2020/12/09 13:30:29;;;;;;;3.13;2.40;;;8.40;99.90;;;;;;5103204;28;20234;-86
2020/12/09 13:33:00;;;;;;;5.67;2.63;;;8.40;99.90;;;;;;5098687;28;20207;-86
2020/12/09 13:35:33;;;;;;;2.17;1.97;;;8.30;99.90;;;;;;5104018;28;20195;-85
2020/12/09 13:38:06;;;;;;;4.57;2.60;;;8.40;99.90;;;;;;5099150;28;20436;-86
2020/12/09 13:40:37;;;;;;;4.37;2.63;;;8.40;99.90;;;;;;5104680;28;20217;-86